sensor_id;sensor_type;location;lat;lon;timestamp;temperature;humidity
19654;DHT22;9975;48.046;7.804;2023-04-28T01:56:37;12.70;99.90
19654;DHT22;9975;48.046;7.804;2023-04-28T01:59:03;12.70;99.90
19654;DHT22;9975;48.046;7.804;2023-04-28T02:01:28;12.70;99.90
19654;DHT22;9975;48.046;7.804;2023-04-28T02:03:54;12.70;99.90
19654;DHT22;9975;48.046;7.804;2023-04-28T02:06:20;12.70;99.90
19654;DHT22;9975;48.046;7.804;2023-04-28T02:08:45;12.70;99.90
19654;DHT22;9975;48.046;7.804;2023-04-28T02:11:11;12.70;99.90
19654;DHT22;9975;48.046;7.804;2023-04-28T02:13:37;12.70;99.90
19654;DHT22;9975;48.046;7.804;2023-04-28T02:16:03;12.70;99.90
19654;DHT22;9975;48.046;7.804;2023-04-28T02:18:28;12.70;99.90
19654;DHT22;9975;48.046;7.804;2023-04-28T02:20:54;12.60;99.90
19654;DHT22;9975;48.046;7.804;2023-04-28T02:23:20;12.60;99.90
19654;DHT22;9975;48.046;7.804;2023-04-28T02:25:46;12.50;99.90
19654;DHT22;9975;48.046;7.804;2023-04-28T02:28:11;12.60;99.90
19654;DHT22;9975;48.046;7.804;2023-04-28T02:30:37;12.60;99.90
19654;DHT22;9975;48.046;7.804;2023-04-28T02:33:03;12.60;99.90
19654;DHT22;9975;48.046;7.804;2023-04-28T02:35:28;12.60;99.90
19654;DHT22;9975;48.046;7.804;2023-04-28T02:37:54;12.60;99.90
19654;DHT22;9975;48.046;7.804;2023-04-28T02:40:20;12.50;99.90
19654;DHT22;9975;48.046;7.804;2023-04-28T02:42:45;12.50;99.90
19654;DHT22;9975;48.046;7.804;2023-04-28T02:45:11;12.40;99.90
19654;DHT22;9975;48.046;7.804;2023-04-28T02:47:37;12.40;99.90
19654;DHT22;9975;48.046;7.804;2023-04-28T02:50:02;12.40;99.90
19654;DHT22;9975;48.046;7.804;2023-04-28T02:52:28;12.40;99.90
19654;DHT22;9975;48.046;7.804;2023-04-28T02:54:54;12.40;99.90
19654;DHT22;9975;48.046;7.804;2023-04-28T02:57:22;12.40;99.90
19654;DHT22;9975;48.046;7.804;2023-04-28T02:59:48;12.30;99.90
19654;DHT22;9975;48.046;7.804;2023-04-28T03:02:13;12.30;99.90
19654;DHT22;9975;48.046;7.804;2023-04-28T03:04:40;12.40;99.90
19654;DHT22;9975;48.046;7.804;2023-04-28T03:07:06;12.40;99.90
19654;DHT22;9975;48.046;7.804;2023-04-28T03:09:31;12.40;99.90
19654;DHT22;9975;48.046;7.804;2023-04-28T03:11:57;12.40;99.90
19654;DHT22;9975;48.046;7.804;2023-04-28T03:14:23;12.50;99.90
19654;DHT22;9975;48.046;7.804;2023-04-28T03:16:49;12.60;99.90
19654;DHT22;9975;48.046;7.804;2023-04-28T03:19:14;12.50;99.90
19654;DHT22;9975;48.046;7.804;2023-04-28T03:21:40;12.50;99.90
19654;DHT22;9975;48.046;7.804;2023-04-28T03:24:06;12.50;99.90
19654;DHT22;9975;48.046;7.804;2023-04-28T03:26:31;12.50;99.90
19654;DHT22;9975;48.046;7.804;2023-04-28T03:28:57;12.50;99.90
19654;DHT22;9975;48.046;7.804;2023-04-28T03:31:23;12.50;99.90
19654;DHT22;9975;48.046;7.804;2023-04-28T03:33:48;12.50;99.90
19654;DHT22;9975;48.046;7.804;2023-04-28T03:36:14;12.60;99.90
19654;DHT22;9975;48.046;7.804;2023-04-28T03:38:40;12.60;99.90
19654;DHT22;9975;48.046;7.804;2023-04-28T03:41:06;12.60;99.90
19654;DHT22;9975;48.046;7.804;2023-04-28T03:43:31;12.70;99.90
19654;DHT22;9975;48.046;7.804;2023-04-28T03:45:59;12.70;99.90
19654;DHT22;9975;48.046;7.804;2023-04-28T03:48:25;12.70;99.90
19654;DHT22;9975;48.046;7.804;2023-04-28T03:50:51;12.70;99.90
19654;DHT22;9975;48.046;7.804;2023-04-28T03:53:16;12.70;99.90
19654;DHT22;9975;48.046;7.804;2023-04-28T03:55:42;12.70;99.90
19654;DHT22;9975;48.046;7.804;2023-04-28T03:58:08;12.70;99.90
19654;DHT22;9975;48.046;7.804;2023-04-28T04:00:34;12.70;99.90
19654;DHT22;9975;48.046;7.804;2023-04-28T04:02:59;12.70;99.90
19654;DHT22;9975;48.046;7.804;2023-04-28T04:05:25;12.80;99.90
19654;DHT22;9975;48.046;7.804;2023-04-28T04:07:51;12.80;99.90
19654;DHT22;9975;48.046;7.804;2023-04-28T04:10:17;12.80;99.90
19654;DHT22;9975;48.046;7.804;2023-04-28T04:12:43;12.80;99.90
19654;DHT22;9975;48.046;7.804;2023-04-28T04:15:09;12.70;99.90
19654;DHT22;9975;48.046;7.804;2023-04-28T04:17:34;12.70;99.90
19654;DHT22;9975;48.046;7.804;2023-04-28T04:20:00;12.70;99.90
19654;DHT22;9975;48.046;7.804;2023-04-28T04:22:26;12.70;99.90
19654;DHT22;9975;48.046;7.804;2023-04-28T04:24:52;12.80;99.90
19654;DHT22;9975;48.046;7.804;2023-04-28T04:27:17;12.80;99.90
19654;DHT22;9975;48.046;7.804;2023-04-28T04:29:43;12.80;99.90
19654;DHT22;9975;48.046;7.804;2023-04-28T04:32:09;12.80;99.90
19654;DHT22;9975;48.046;7.804;2023-04-28T04:34:35;12.80;99.90
19654;DHT22;9975;48.046;7.804;2023-04-28T04:37:01;12.80;99.90
19654;DHT22;9975;48.046;7.804;2023-04-28T04:39:26;12.80;99.90
19654;DHT22;9975;48.046;7.804;2023-04-28T04:41:52;12.80;99.90
19654;DHT22;9975;48.046;7.804;2023-04-28T04:44:18;12.90;99.90
19654;DHT22;9975;48.046;7.804;2023-04-28T04:46:44;13.00;99.90
19654;DHT22;9975;48.046;7.804;2023-04-28T04:49:10;13.00;99.90
19654;DHT22;9975;48.046;7.804;2023-04-28T04:51:36;13.00;99.90
19654;DHT22;9975;48.046;7.804;2023-04-28T04:54:02;13.00;99.90
19654;DHT22;9975;48.046;7.804;2023-04-28T04:56:27;13.00;99.90
19654;DHT22;9975;48.046;7.804;2023-04-28T04:58:53;13.00;99.90
19654;DHT22;9975;48.046;7.804;2023-04-28T05:01:18;13.00;99.90
19654;DHT22;9975;48.046;7.804;2023-04-28T05:03:44;13.00;99.90
19654;DHT22;9975;48.046;7.804;2023-04-28T05:06:10;13.00;99.90
19654;DHT22;9975;48.046;7.804;2023-04-28T05:08:35;13.10;99.90
19654;DHT22;9975;48.046;7.804;2023-04-28T05:11:01;13.10;99.90
19654;DHT22;9975;48.046;7.804;2023-04-28T05:13:27;13.10;99.90
19654;DHT22;9975;48.046;7.804;2023-04-28T05:15:52;13.10;99.90
19654;DHT22;9975;48.046;7.804;2023-04-28T05:18:18;13.20;99.90
19654;DHT22;9975;48.046;7.804;2023-04-28T05:20:44;13.20;99.90
19654;DHT22;9975;48.046;7.804;2023-04-28T05:23:09;13.20;99.90
19654;DHT22;9975;48.046;7.804;2023-04-28T05:25:35;13.30;99.90
19654;DHT22;9975;48.046;7.804;2023-04-28T05:28:01;13.30;99.90
19654;DHT22;9975;48.046;7.804;2023-04-28T05:30:32;13.30;99.90
19654;DHT22;9975;48.046;7.804;2023-04-28T05:32:57;13.30;99.90
19654;DHT22;9975;48.046;7.804;2023-04-28T05:35:23;13.30;99.90
19654;DHT22;9975;48.046;7.804;2023-04-28T05:37:49;13.30;99.90
19654;DHT22;9975;48.046;7.804;2023-04-28T05:40:14;13.40;99.90
19654;DHT22;9975;48.046;7.804;2023-04-28T05:42:40;13.30;99.90
19654;DHT22;9975;48.046;7.804;2023-04-28T05:45:06;13.40;99.90
19654;DHT22;9975;48.046;7.804;2023-04-28T05:47:32;13.40;99.90
19654;DHT22;9975;48.046;7.804;2023-04-28T05:49:58;13.40;99.90
19654;DHT22;9975;48.046;7.804;2023-04-28T05:52:23;13.40;99.90
19654;DHT22;9975;48.046;7.804;2023-04-28T05:54:49;13.40;99.90
19654;DHT22;9975;48.046;7.804;2023-04-28T05:57:14;13.40;99.90
19654;DHT22;9975;48.046;7.804;2023-04-28T05:59:40;13.40;99.90
19654;DHT22;9975;48.046;7.804;2023-04-28T06:02:06;13.40;99.90
19654;DHT22;9975;48.046;7.804;2023-04-28T06:04:31;13.40;99.90
19654;DHT22;9975;48.046;7.804;2023-04-28T06:06:57;13.40;99.90
19654;DHT22;9975;48.046;7.804;2023-04-28T06:09:23;13.40;99.90
19654;DHT22;9975;48.046;7.804;2023-04-28T06:11:49;12.60;99.90
19654;DHT22;9975;48.046;7.804;2023-04-28T06:14:15;13.40;99.90
19654;DHT22;9975;48.046;7.804;2023-04-28T06:16:40;13.40;99.90
19654;DHT22;9975;48.046;7.804;2023-04-28T06:19:06;13.30;99.90
19654;DHT22;9975;48.046;7.804;2023-04-28T06:21:32;13.30;99.90
19654;DHT22;9975;48.046;7.804;2023-04-28T06:23:58;13.30;99.90
19654;DHT22;9975;48.046;7.804;2023-04-28T06:26:23;13.20;99.90
19654;DHT22;9975;48.046;7.804;2023-04-28T06:28:49;13.20;99.90
19654;DHT22;9975;48.046;7.804;2023-04-28T06:31:15;13.20;99.90
19654;DHT22;9975;48.046;7.804;2023-04-28T06:33:41;13.30;99.90
19654;DHT22;9975;48.046;7.804;2023-04-28T06:36:06;13.30;99.90
19654;DHT22;9975;48.046;7.804;2023-04-28T06:38:32;13.30;99.90
19654;DHT22;9975;48.046;7.804;2023-04-28T06:40:58;13.30;99.90
19654;DHT22;9975;48.046;7.804;2023-04-28T06:43:23;13.30;99.90
19654;DHT22;9975;48.046;7.804;2023-04-28T06:45:49;13.30;99.90
19654;DHT22;9975;48.046;7.804;2023-04-28T06:48:14;13.30;99.90
19654;DHT22;9975;48.046;7.804;2023-04-28T06:50:40;13.30;99.90
19654;DHT22;9975;48.046;7.804;2023-04-28T06:53:06;13.30;99.90
19654;DHT22;9975;48.046;7.804;2023-04-28T06:55:34;13.20;99.90
19654;DHT22;9975;48.046;7.804;2023-04-28T06:57:59;13.20;99.90
19654;DHT22;9975;48.046;7.804;2023-04-28T07:00:25;13.20;99.90
19654;DHT22;9975;48.046;7.804;2023-04-28T07:02:51;13.10;99.90
19654;DHT22;9975;48.046;7.804;2023-04-28T07:05:17;13.10;99.90
19654;DHT22;9975;48.046;7.804;2023-04-28T07:07:42;13.10;99.90
19654;DHT22;9975;48.046;7.804;2023-04-28T07:10:14;13.10;99.90
19654;DHT22;9975;48.046;7.804;2023-04-28T07:12:40;13.00;99.90
19654;DHT22;9975;48.046;7.804;2023-04-28T07:15:06;13.00;99.90
19654;DHT22;9975;48.046;7.804;2023-04-28T07:17:32;13.10;99.90
19654;DHT22;9975;48.046;7.804;2023-04-28T07:19:58;13.00;99.90
19654;DHT22;9975;48.046;7.804;2023-04-28T07:22:23;13.10;99.90
19654;DHT22;9975;48.046;7.804;2023-04-28T07:24:49;13.10;99.90
19654;DHT22;9975;48.046;7.804;2023-04-28T07:27:15;13.10;99.90
19654;DHT22;9975;48.046;7.804;2023-04-28T07:29:40;13.20;99.90
19654;DHT22;9975;48.046;7.804;2023-04-28T07:32:06;13.20;99.90
19654;DHT22;9975;48.046;7.804;2023-04-28T07:34:35;13.20;99.90
19654;DHT22;9975;48.046;7.804;2023-04-28T07:37:02;13.30;99.90
19654;DHT22;9975;48.046;7.804;2023-04-28T07:39:34;13.30;99.90
19654;DHT22;9975;48.046;7.804;2023-04-28T07:42:01;13.20;99.90
19654;DHT22;9975;48.046;7.804;2023-04-28T07:44:27;13.30;99.90
19654;DHT22;9975;48.046;7.804;2023-04-28T07:46:53;13.30;99.90
19654;DHT22;9975;48.046;7.804;2023-04-28T07:49:19;13.30;99.90
19654;DHT22;9975;48.046;7.804;2023-04-28T07:51:45;13.30;99.90
19654;DHT22;9975;48.046;7.804;2023-04-28T07:54:10;13.40;99.90
19654;DHT22;9975;48.046;7.804;2023-04-28T07:56:36;13.40;99.90
19654;DHT22;9975;48.046;7.804;2023-04-28T07:59:02;13.40;99.90
19654;DHT22;9975;48.046;7.804;2023-04-28T08:01:27;13.40;99.90
19654;DHT22;9975;48.046;7.804;2023-04-28T08:03:53;13.50;99.90
19654;DHT22;9975;48.046;7.804;2023-04-28T08:06:19;13.50;99.90
19654;DHT22;9975;48.046;7.804;2023-04-28T08:08:44;13.60;99.90
19654;DHT22;9975;48.046;7.804;2023-04-28T08:11:10;13.60;99.90
19654;DHT22;9975;48.046;7.804;2023-04-28T08:13:36;13.60;99.90
19654;DHT22;9975;48.046;7.804;2023-04-28T08:16:01;13.60;99.90
19654;DHT22;9975;48.046;7.804;2023-04-28T08:18:27;13.60;99.90
19654;DHT22;9975;48.046;7.804;2023-04-28T08:20:53;13.60;99.90
19654;DHT22;9975;48.046;7.804;2023-04-28T08:23:19;13.60;99.90
19654;DHT22;9975;48.046;7.804;2023-04-28T08:25:45;13.70;99.90
19654;DHT22;9975;48.046;7.804;2023-04-28T08:28:12;13.70;99.90
19654;DHT22;9975;48.046;7.804;2023-04-28T08:30:37;13.70;99.90
19654;DHT22;9975;48.046;7.804;2023-04-28T08:33:03;13.70;99.90
19654;DHT22;9975;48.046;7.804;2023-04-28T08:35:29;13.70;99.90
19654;DHT22;9975;48.046;7.804;2023-04-28T08:37:55;13.70;99.90
19654;DHT22;9975;48.046;7.804;2023-04-28T08:40:21;13.70;99.90
19654;DHT22;9975;48.046;7.804;2023-04-28T08:42:48;13.70;99.90
19654;DHT22;9975;48.046;7.804;2023-04-28T08:45:14;13.70;99.90
19654;DHT22;9975;48.046;7.804;2023-04-28T08:47:41;13.70;99.90
19654;DHT22;9975;48.046;7.804;2023-04-28T08:50:10;13.70;99.90
19654;DHT22;9975;48.046;7.804;2023-04-28T08:52:37;13.70;99.90
19654;DHT22;9975;48.046;7.804;2023-04-28T08:55:10;13.80;99.90
19654;DHT22;9975;48.046;7.804;2023-04-28T08:57:45;13.80;99.90
19654;DHT22;9975;48.046;7.804;2023-04-28T09:00:13;13.80;99.90
19654;DHT22;9975;48.046;7.804;2023-04-28T09:02:39;13.90;99.90
19654;DHT22;9975;48.046;7.804;2023-04-28T09:05:09;13.90;99.90
19654;DHT22;9975;48.046;7.804;2023-04-28T09:07:35;13.90;99.90
19654;DHT22;9975;48.046;7.804;2023-04-28T09:10:23;13.90;99.90
19654;DHT22;9975;48.046;7.804;2023-04-28T09:12:52;13.90;99.90
19654;DHT22;9975;48.046;7.804;2023-04-28T09:15:30;13.90;99.90
19654;DHT22;9975;48.046;7.804;2023-04-28T09:17:56;14.00;99.90
19654;DHT22;9975;48.046;7.804;2023-04-28T09:20:24;14.00;99.90
19654;DHT22;9975;48.046;7.804;2023-04-28T09:22:51;13.90;99.90
19654;DHT22;9975;48.046;7.804;2023-04-28T09:25:17;13.90;99.90
19654;DHT22;9975;48.046;7.804;2023-04-28T09:27:43;14.00;99.90
19654;DHT22;9975;48.046;7.804;2023-04-28T09:30:09;14.00;99.90
19654;DHT22;9975;48.046;7.804;2023-04-28T09:32:35;14.00;99.90
19654;DHT22;9975;48.046;7.804;2023-04-28T09:35:01;14.10;99.90
19654;DHT22;9975;48.046;7.804;2023-04-28T09:37:29;14.10;99.90
19654;DHT22;9975;48.046;7.804;2023-04-28T09:39:57;14.10;99.90
19654;DHT22;9975;48.046;7.804;2023-04-28T09:42:37;14.20;99.90
19654;DHT22;9975;48.046;7.804;2023-04-28T09:45:10;14.20;99.90
19654;DHT22;9975;48.046;7.804;2023-04-28T09:47:38;14.30;99.90
19654;DHT22;9975;48.046;7.804;2023-04-28T09:50:06;14.30;99.90
19654;DHT22;9975;48.046;7.804;2023-04-28T09:52:34;14.30;99.90
19654;DHT22;9975;48.046;7.804;2023-04-28T09:55:04;14.50;99.90
19654;DHT22;9975;48.046;7.804;2023-04-28T09:57:32;14.60;99.90
19654;DHT22;9975;48.046;7.804;2023-04-28T09:59:59;14.60;99.90
19654;DHT22;9975;48.046;7.804;2023-04-28T10:02:26;14.60;99.90
19654;DHT22;9975;48.046;7.804;2023-04-28T10:04:51;14.60;99.90
19654;DHT22;9975;48.046;7.804;2023-04-28T10:07:19;14.60;99.90
19654;DHT22;9975;48.046;7.804;2023-04-28T10:09:46;14.60;99.90
19654;DHT22;9975;48.046;7.804;2023-04-28T10:12:18;14.60;99.90
19654;DHT22;9975;48.046;7.804;2023-04-28T10:14:45;14.70;99.90
19654;DHT22;9975;48.046;7.804;2023-04-28T10:17:13;14.70;99.90
19654;DHT22;9975;48.046;7.804;2023-04-28T10:19:43;14.80;99.90
19654;DHT22;9975;48.046;7.804;2023-04-28T10:27:44;15.10;99.90
19654;DHT22;9975;48.046;7.804;2023-04-28T10:30:37;15.20;99.90
19654;DHT22;9975;48.046;7.804;2023-04-28T10:35:42;15.40;99.90
19654;DHT22;9975;48.046;7.804;2023-04-28T10:38:13;15.50;99.90
19654;DHT22;9975;48.046;7.804;2023-04-28T10:40:43;15.50;99.90
19654;DHT22;9975;48.046;7.804;2023-04-28T10:43:12;15.60;99.90
19654;DHT22;9975;48.046;7.804;2023-04-28T10:58:41;16.00;99.90
19654;DHT22;9975;48.046;7.804;2023-04-28T11:08:51;16.70;99.90
19654;DHT22;9975;48.046;7.804;2023-04-28T11:11:23;16.80;99.90
19654;DHT22;9975;48.046;7.804;2023-04-28T11:13:50;16.70;99.90
19654;DHT22;9975;48.046;7.804;2023-04-28T11:16:18;16.60;99.90
19654;DHT22;9975;48.046;7.804;2023-04-28T11:19:01;16.70;99.90
19654;DHT22;9975;48.046;7.804;2023-04-28T11:21:31;16.80;99.90
19654;DHT22;9975;48.046;7.804;2023-04-28T11:23:57;17.00;99.90
19654;DHT22;9975;48.046;7.804;2023-04-28T11:26:23;17.10;99.90
19654;DHT22;9975;48.046;7.804;2023-04-28T11:28:54;17.10;99.90
19654;DHT22;9975;48.046;7.804;2023-04-28T11:31:22;17.10;99.90
19654;DHT22;9975;48.046;7.804;2023-04-28T11:36:27;17.30;99.90
19654;DHT22;9975;48.046;7.804;2023-04-28T11:38:54;17.50;99.90
19654;DHT22;9975;48.046;7.804;2023-04-28T11:41:21;17.80;99.90
19654;DHT22;9975;48.046;7.804;2023-04-28T11:43:47;17.90;99.90
19654;DHT22;9975;48.046;7.804;2023-04-28T11:46:20;17.70;99.90
19654;DHT22;9975;48.046;7.804;2023-04-28T11:48:46;17.70;99.90
19654;DHT22;9975;48.046;7.804;2023-04-28T11:51:41;17.70;99.90
19654;DHT22;9975;48.046;7.804;2023-04-28T11:54:10;17.90;99.90
19654;DHT22;9975;48.046;7.804;2023-04-28T11:56:40;17.90;99.90
19654;DHT22;9975;48.046;7.804;2023-04-28T11:59:07;18.20;99.90
19654;DHT22;9975;48.046;7.804;2023-04-28T12:01:43;18.40;99.90
19654;DHT22;9975;48.046;7.804;2023-04-28T12:04:09;18.60;99.90
19654;DHT22;9975;48.046;7.804;2023-04-28T12:06:34;18.80;99.90
19654;DHT22;9975;48.046;7.804;2023-04-28T12:09:00;19.30;99.90
19654;DHT22;9975;48.046;7.804;2023-04-28T12:11:54;19.60;99.90
19654;DHT22;9975;48.046;7.804;2023-04-28T12:14:21;19.30;99.90
19654;DHT22;9975;48.046;7.804;2023-04-28T12:16:47;19.40;99.90
19654;DHT22;9975;48.046;7.804;2023-04-28T12:19:14;19.60;99.90
19654;DHT22;9975;48.046;7.804;2023-04-28T12:21:41;19.60;99.90
19654;DHT22;9975;48.046;7.804;2023-04-28T12:24:33;19.60;99.90
19654;DHT22;9975;48.046;7.804;2023-04-28T12:27:19;19.70;99.90
19654;DHT22;9975;48.046;7.804;2023-04-28T12:29:49;19.80;99.90
19654;DHT22;9975;48.046;7.804;2023-04-28T12:32:16;19.80;99.90
19654;DHT22;9975;48.046;7.804;2023-04-28T12:34:44;19.70;99.90
19654;DHT22;9975;48.046;7.804;2023-04-28T12:37:10;19.60;99.90
19654;DHT22;9975;48.046;7.804;2023-04-28T12:39:38;19.30;99.90
19654;DHT22;9975;48.046;7.804;2023-04-28T12:42:04;19.40;99.90
19654;DHT22;9975;48.046;7.804;2023-04-28T12:44:35;19.40;99.90
19654;DHT22;9975;48.046;7.804;2023-04-28T12:47:05;19.40;99.90
19654;DHT22;9975;48.046;7.804;2023-04-28T12:49:31;19.40;99.90
19654;DHT22;9975;48.046;7.804;2023-04-28T12:51:57;19.10;99.90
19654;DHT22;9975;48.046;7.804;2023-04-28T12:54:23;19.10;99.90
19654;DHT22;9975;48.046;7.804;2023-04-28T12:56:48;19.10;99.90
19654;DHT22;9975;48.046;7.804;2023-04-28T12:59:14;19.20;99.90
19654;DHT22;9975;48.046;7.804;2023-04-28T13:01:40;19.10;99.90
19654;DHT22;9975;48.046;7.804;2023-04-28T13:04:06;19.00;99.90
19654;DHT22;9975;48.046;7.804;2023-04-28T13:06:33;19.30;99.90
19654;DHT22;9975;48.046;7.804;2023-04-28T13:08:59;19.40;99.90
19654;DHT22;9975;48.046;7.804;2023-04-28T13:11:25;19.40;99.90
19654;DHT22;9975;48.046;7.804;2023-04-28T13:13:52;19.50;99.90
19654;DHT22;9975;48.046;7.804;2023-04-28T13:16:18;19.40;99.90
19654;DHT22;9975;48.046;7.804;2023-04-28T13:18:44;19.60;99.90
19654;DHT22;9975;48.046;7.804;2023-04-28T13:21:09;19.70;99.90
19654;DHT22;9975;48.046;7.804;2023-04-28T13:23:36;19.80;99.90
19654;DHT22;9975;48.046;7.804;2023-04-28T13:26:01;20.00;99.90
19654;DHT22;9975;48.046;7.804;2023-04-28T13:28:28;19.90;99.90
19654;DHT22;9975;48.046;7.804;2023-04-28T13:30:54;20.00;99.90
19654;DHT22;9975;48.046;7.804;2023-04-28T13:33:19;20.20;99.90
19654;DHT22;9975;48.046;7.804;2023-04-28T13:35:45;20.20;99.90
19654;DHT22;9975;48.046;7.804;2023-04-28T13:38:11;20.30;99.90
19654;DHT22;9975;48.046;7.804;2023-04-28T13:40:36;20.30;99.90
19654;DHT22;9975;48.046;7.804;2023-04-28T13:43:02;20.20;99.90
19654;DHT22;9975;48.046;7.804;2023-04-28T13:45:29;20.30;99.90
19654;DHT22;9975;48.046;7.804;2023-04-28T13:47:56;20.40;99.90
19654;DHT22;9975;48.046;7.804;2023-04-28T13:50:22;20.50;99.90
19654;DHT22;9975;48.046;7.804;2023-04-28T13:52:47;20.40;99.90
19654;DHT22;9975;48.046;7.804;2023-04-28T13:55:13;20.50;99.90
19654;DHT22;9975;48.046;7.804;2023-04-28T13:57:38;20.40;99.90
19654;DHT22;9975;48.046;7.804;2023-04-28T14:00:05;20.60;99.90
19654;DHT22;9975;48.046;7.804;2023-04-28T14:02:30;20.70;99.90
19654;DHT22;9975;48.046;7.804;2023-04-28T14:04:56;20.50;99.90
19654;DHT22;9975;48.046;7.804;2023-04-28T14:07:21;20.70;99.90
19654;DHT22;9975;48.046;7.804;2023-04-28T14:09:48;20.50;99.90
19654;DHT22;9975;48.046;7.804;2023-04-28T14:12:14;20.60;99.90
19654;DHT22;9975;48.046;7.804;2023-04-28T14:14:40;20.70;99.90
19654;DHT22;9975;48.046;7.804;2023-04-28T14:17:07;20.60;99.90
19654;DHT22;9975;48.046;7.804;2023-04-28T14:19:33;20.60;99.90
19654;DHT22;9975;48.046;7.804;2023-04-28T14:22:00;20.70;99.90
19654;DHT22;9975;48.046;7.804;2023-04-28T14:24:26;20.90;99.90
19654;DHT22;9975;48.046;7.804;2023-04-28T14:26:52;21.00;99.90
19654;DHT22;9975;48.046;7.804;2023-04-28T14:29:17;21.20;99.90
19654;DHT22;9975;48.046;7.804;2023-04-28T14:31:43;21.00;99.90
19654;DHT22;9975;48.046;7.804;2023-04-28T14:34:09;21.00;99.90
19654;DHT22;9975;48.046;7.804;2023-04-28T14:36:35;21.00;99.90
19654;DHT22;9975;48.046;7.804;2023-04-28T14:39:02;21.00;99.90
19654;DHT22;9975;48.046;7.804;2023-04-28T14:41:28;20.90;99.90
19654;DHT22;9975;48.046;7.804;2023-04-28T14:43:53;20.50;99.90
19654;DHT22;9975;48.046;7.804;2023-04-28T14:46:19;20.40;99.90
19654;DHT22;9975;48.046;7.804;2023-04-28T14:48:48;20.40;99.90
19654;DHT22;9975;48.046;7.804;2023-04-28T14:51:14;20.60;99.90
19654;DHT22;9975;48.046;7.804;2023-04-28T14:53:39;20.50;99.90
19654;DHT22;9975;48.046;7.804;2023-04-28T14:56:06;20.40;99.90
19654;DHT22;9975;48.046;7.804;2023-04-28T14:58:33;20.40;99.90
19654;DHT22;9975;48.046;7.804;2023-04-28T15:00:59;20.50;99.90
19654;DHT22;9975;48.046;7.804;2023-04-28T15:03:24;20.60;99.90
19654;DHT22;9975;48.046;7.804;2023-04-28T15:05:51;20.50;99.90
19654;DHT22;9975;48.046;7.804;2023-04-28T15:08:17;20.40;99.90
19654;DHT22;9975;48.046;7.804;2023-04-28T15:10:43;20.60;99.90
19654;DHT22;9975;48.046;7.804;2023-04-28T15:13:09;20.30;99.90
19654;DHT22;9975;48.046;7.804;2023-04-28T15:15:35;20.40;99.90
19654;DHT22;9975;48.046;7.804;2023-04-28T15:18:01;20.30;99.90
19654;DHT22;9975;48.046;7.804;2023-04-28T15:20:29;20.40;99.90
19654;DHT22;9975;48.046;7.804;2023-04-28T15:22:55;20.30;99.90
19654;DHT22;9975;48.046;7.804;2023-04-28T15:25:21;20.50;99.90
19654;DHT22;9975;48.046;7.804;2023-04-28T15:27:47;20.70;99.90
19654;DHT22;9975;48.046;7.804;2023-04-28T15:30:15;21.20;99.90
19654;DHT22;9975;48.046;7.804;2023-04-28T15:32:44;21.30;99.90
19654;DHT22;9975;48.046;7.804;2023-04-28T15:35:10;21.50;99.90
19654;DHT22;9975;48.046;7.804;2023-04-28T15:40:04;21.60;99.90
19654;DHT22;9975;48.046;7.804;2023-04-28T15:42:31;21.70;99.90
19654;DHT22;9975;48.046;7.804;2023-04-28T15:44:57;21.70;99.90
19654;DHT22;9975;48.046;7.804;2023-04-28T15:47:22;21.90;99.90
19654;DHT22;9975;48.046;7.804;2023-04-28T15:49:51;21.60;99.90
19654;DHT22;9975;48.046;7.804;2023-04-28T15:52:16;21.10;99.90
19654;DHT22;9975;48.046;7.804;2023-04-28T15:54:42;20.90;99.90
19654;DHT22;9975;48.046;7.804;2023-04-28T15:57:08;20.90;99.90
19654;DHT22;9975;48.046;7.804;2023-04-28T15:59:34;20.90;99.90
19654;DHT22;9975;48.046;7.804;2023-04-28T16:02:00;20.90;99.90
19654;DHT22;9975;48.046;7.804;2023-04-28T16:04:26;20.80;99.90
19654;DHT22;9975;48.046;7.804;2023-04-28T16:06:53;20.70;99.90
19654;DHT22;9975;48.046;7.804;2023-04-28T16:09:19;20.70;99.90
19654;DHT22;9975;48.046;7.804;2023-04-28T16:11:45;21.00;99.90
19654;DHT22;9975;48.046;7.804;2023-04-28T16:14:11;21.20;99.90
19654;DHT22;9975;48.046;7.804;2023-04-28T16:16:37;21.40;99.90
19654;DHT22;9975;48.046;7.804;2023-04-28T16:19:03;21.50;99.90
19654;DHT22;9975;48.046;7.804;2023-04-28T16:21:29;21.60;99.90
19654;DHT22;9975;48.046;7.804;2023-04-28T16:23:56;21.80;99.90
19654;DHT22;9975;48.046;7.804;2023-04-28T16:26:22;21.80;99.90
19654;DHT22;9975;48.046;7.804;2023-04-28T16:28:48;21.80;99.70
19654;DHT22;9975;48.046;7.804;2023-04-28T16:31:14;21.70;98.30
19654;DHT22;9975;48.046;7.804;2023-04-28T16:33:39;21.70;98.40
19654;DHT22;9975;48.046;7.804;2023-04-28T16:36:05;21.40;98.60
19654;DHT22;9975;48.046;7.804;2023-04-28T16:38:31;21.10;98.60
19654;DHT22;9975;48.046;7.804;2023-04-28T16:40:56;21.00;98.90
19654;DHT22;9975;48.046;7.804;2023-04-28T16:43:22;20.90;98.90
19654;DHT22;9975;48.046;7.804;2023-04-28T16:45:47;20.80;98.80
19654;DHT22;9975;48.046;7.804;2023-04-28T16:48:14;20.70;98.90
19654;DHT22;9975;48.046;7.804;2023-04-28T16:50:41;20.50;99.30
19654;DHT22;9975;48.046;7.804;2023-04-28T16:53:06;20.50;99.70
19654;DHT22;9975;48.046;7.804;2023-04-28T16:55:34;20.50;99.80
19654;DHT22;9975;48.046;7.804;2023-04-28T16:58:01;20.60;99.70
19654;DHT22;9975;48.046;7.804;2023-04-28T17:00:26;20.60;99.90
19654;DHT22;9975;48.046;7.804;2023-04-28T17:02:52;20.40;99.60
19654;DHT22;9975;48.046;7.804;2023-04-28T17:05:18;20.10;99.90
19654;DHT22;9975;48.046;7.804;2023-04-28T17:07:44;20.00;99.90
19654;DHT22;9975;48.046;7.804;2023-04-28T17:10:10;20.10;99.90
19654;DHT22;9975;48.046;7.804;2023-04-28T17:12:35;20.00;99.90
19654;DHT22;9975;48.046;7.804;2023-04-28T17:15:01;20.00;99.90
19654;DHT22;9975;48.046;7.804;2023-04-28T17:17:27;20.10;99.90
19654;DHT22;9975;48.046;7.804;2023-04-28T17:19:53;20.00;99.90
19654;DHT22;9975;48.046;7.804;2023-04-28T17:22:19;19.80;99.90
19654;DHT22;9975;48.046;7.804;2023-04-28T17:24:44;19.80;99.90
19654;DHT22;9975;48.046;7.804;2023-04-28T17:27:10;19.80;99.90
19654;DHT22;9975;48.046;7.804;2023-04-28T17:29:36;19.90;99.90
19654;DHT22;9975;48.046;7.804;2023-04-28T17:32:01;19.90;99.90
19654;DHT22;9975;48.046;7.804;2023-04-28T17:34:27;19.90;99.90
19654;DHT22;9975;48.046;7.804;2023-04-28T17:36:53;19.90;99.90
19654;DHT22;9975;48.046;7.804;2023-04-28T17:39:18;19.90;99.90
19654;DHT22;9975;48.046;7.804;2023-04-28T17:41:44;19.70;99.90
19654;DHT22;9975;48.046;7.804;2023-04-28T17:44:11;19.70;99.90
19654;DHT22;9975;48.046;7.804;2023-04-28T17:46:36;19.70;99.90
19654;DHT22;9975;48.046;7.804;2023-04-28T17:49:02;19.60;99.90
19654;DHT22;9975;48.046;7.804;2023-04-28T17:51:28;19.60;99.90
19654;DHT22;9975;48.046;7.804;2023-04-28T17:53:54;19.50;99.90
19654;DHT22;9975;48.046;7.804;2023-04-28T17:56:23;19.30;99.90
19654;DHT22;9975;48.046;7.804;2023-04-28T17:58:48;19.20;99.90
19654;DHT22;9975;48.046;7.804;2023-04-28T18:01:14;19.10;99.90
19654;DHT22;9975;48.046;7.804;2023-04-28T18:03:41;19.10;99.90
19654;DHT22;9975;48.046;7.804;2023-04-28T18:06:07;19.10;99.90
19654;DHT22;9975;48.046;7.804;2023-04-28T18:08:33;19.00;99.90
19654;DHT22;9975;48.046;7.804;2023-04-28T18:10:59;18.90;99.90